• Join FlightAware (Why Join?)
  • Login
  • US Flag 
08:07AM EST


 

Airport Tracker/Info


-or-


 

Live Flight TrackerFlight Track Log ✈ UAL5942 ✈ 24-Apr-2013 ✈ KRDU - KIAD

Flight Track Log - Related Links

Times and Time Zones

All times are in EDT time to prevent confusion due to time zone crossing. See the UAL5942 flight status page for this flight to view local times or setup timezone preferences in your user account.

Time Position Orientation Groundspeed Altitude Reporting Facility
EDT Latitude Longitude Course Direction KTS MPH feet Rate Location/Type
08:30PM 35.8686 -78.8114 223° Southwest 160 184 1,300  Level Washington Center
08:31PM 35.8386 -78.8461 223° Southwest 162 186 3,800 2,760 Climbing Washington Center
08:32PM 35.8183 -78.8964 244° Southwest 194 223 6,700 1,620 Climbing Washington Center
08:32PM 35.8589 -78.9442 316° Northwest 219 252 7,000 240 Climbing Washington Center
08:34PM 35.9069 -79.0078 313° West 210 242 7,300 1,080 Climbing Washington Center
08:34PM 35.9456 -79.0428 324° Northwest 224 258 9,200 1,620 Climbing Washington Center
08:36PM 36.0331 -78.9825 29° Northeast 338 389 10,500 1,080 Climbing Washington Center
08:37PM 36.1189 -78.8986 38° Northeast 363 418 11,600 1,260 Climbing Washington Center
08:38PM 36.1961 -78.8197 39° Northeast 395 455 13,100 1,500 Climbing Washington Center
08:39PM 36.2883 -78.7256 39° Northeast 414 476 14,700 1,620 Climbing Washington Center
08:40PM 36.3889 -78.6236 39° Northeast 420 483 16,400 1,500 Climbing Washington Center
08:41PM 36.4969 -78.5633 24° Northeast 414 476 17,700 1,440 Climbing Washington Center
08:42PM 36.6128 -78.5211 16° North 414 476 19,300 1,440 Climbing Washington Center
08:43PM 36.7158 -78.4836 16° North 419 482 20,600 1,200 Climbing Washington Center
08:44PM 36.8239 -78.4150 27° Northeast 425 489 21,800 660 Climbing Washington Center
08:45PM 36.9281 -78.3253 35° Northeast 431 496 22,000 60 Climbing Washington Center
08:46PM 37.0472 -78.2281 33° Northeast 458 527 22,000  Level Washington Center
08:47PM 37.1342 -78.1581 33° Northeast 458 527 22,000  Level Washington Center
08:48PM 37.2575 -78.0550 34° Northeast 453 521 22,000  Level Washington Center
08:49PM 37.3633 -77.9672 33° Northeast 448 516 22,000  Level Washington Center
08:50PM 37.4694 -77.8789 33° Northeast 448 516 22,000 -60 Level Washington Center
08:51PM 37.5772 -77.8008 30° Northeast 448 516 21,900 -1,020 Descending Washington Center
08:52PM 37.6911 -77.7306 26° Northeast 443 510 20,000 -1,980 Descending Washington Center
08:53PM 37.7986 -77.6706 24° Northeast 437 503 18,000 -2,040 Descending Washington Center
08:54PM 37.9039 -77.6078 25° Northeast 416 479 16,000 -2,040 Descending Washington Center
08:55PM 38.0050 -77.5497 24° Northeast 406 467 14,000 -1,860 Descending Washington Center
08:56PM 38.0956 -77.5019 23° Northeast 400 460 12,300 -1,920 Descending Washington Center
08:57PM 38.1861 -77.4461 26° Northeast 378 435 10,300 -1,500 Descending Washington Center
08:58PM 38.2681 -77.3953 26° Northeast 346 398 9,300 -1,500 Descending Washington Center
08:59PM 38.3481 -77.3575 20° North 315 362 7,400 -1,920 Descending Washington Center
09:00PM 38.4208 -77.3592 359° North 276 318 5,500 -1,260 Descending Washington Center
09:01PM 38.4958 -77.3636 357° North 276 318 4,900 -300 Descending Washington Center
09:02PM 38.5731 -77.3683 357° North 271 312 5,000 -240 Climbing Washington Center
09:02PM 38.6333 -77.3667 North 282 325 4,600 -660 Descending Potomac TRACON
09:03PM 38.7000 -77.3667 360° North 282 325 4,000 -300 Descending Potomac TRACON
09:04PM 38.7833 -77.3500 North 275 316 4,100  Climbing Potomac TRACON
09:05PM 38.8500 -77.3500 360° North 268 308 4,100 -360 Level Potomac TRACON
09:06PM 38.9167 -77.3500 360° North 247 284 3,500 -600 Descending Potomac TRACON
09:07PM 38.9833 -77.3500 360° North 229 264 3,000 -240 Descending Potomac TRACON
09:08PM 39.0500 -77.3500 360° North 207 238 3,100 -480 Climbing Potomac TRACON
09:09PM 39.0833 -77.3667 339° North 197 227 2,200 -600 Descending Potomac TRACON
09:10PM 39.0500 -77.4000 218° Southwest 152 175 2,000 -300 Descending Potomac TRACON
09:11PM 39.0167 -77.4333 218° Southwest 149 171 1,600 -420 Descending Potomac TRACON